createdAt,value
2023-02-16T00:00:03.050Z,1.65
2023-02-16T00:01:03.504Z,0.69
2023-02-16T00:02:03.223Z,0.47
2023-02-16T00:03:03.226Z,0.47
2023-02-16T00:04:03.195Z,0.00
2023-02-16T00:05:03.202Z,0.80
2023-02-16T00:06:03.221Z,1.44
2023-02-16T00:07:03.248Z,0.47
2023-02-16T00:08:03.261Z,0.00
2023-02-16T00:09:03.277Z,0.47
2023-02-16T00:10:03.361Z,0.00
2023-02-16T00:11:03.712Z,0.00
2023-02-16T00:12:03.332Z,0.00
2023-02-16T00:13:03.344Z,0.00
2023-02-16T00:14:03.322Z,0.00
2023-02-16T00:15:03.385Z,0.00
2023-02-16T00:16:03.405Z,0.00
2023-02-16T00:17:03.382Z,0.00
2023-02-16T00:18:03.425Z,0.00
2023-02-16T00:19:03.431Z,0.00
2023-02-16T00:20:03.434Z,0.00
2023-02-16T00:21:03.646Z,0.00
2023-02-16T00:22:03.534Z,0.00
2023-02-16T00:23:03.595Z,0.58
2023-02-16T00:24:03.573Z,0.00
2023-02-16T00:25:03.621Z,0.58
2023-02-16T00:26:03.600Z,0.47
2023-02-16T00:27:03.678Z,0.58
2023-02-16T00:28:03.704Z,0.00
2023-02-16T00:29:03.755Z,0.00
2023-02-16T00:30:03.818Z,0.00
2023-02-16T00:31:04.193Z,0.00
2023-02-16T00:32:03.979Z,0.00
2023-02-16T00:33:03.817Z,0.00
2023-02-16T00:34:03.889Z,0.00
2023-02-16T00:35:03.901Z,0.00
2023-02-16T00:36:03.948Z,0.00
2023-02-16T00:37:03.982Z,0.00
2023-02-16T00:38:03.992Z,0.47
2023-02-16T00:39:04.051Z,0.80
2023-02-16T00:40:04.069Z,0.90
2023-02-16T00:41:04.411Z,0.80
2023-02-16T00:42:04.063Z,0.90
2023-02-16T00:43:04.032Z,0.58
2023-02-16T00:44:04.111Z,0.90
2023-02-16T00:45:04.092Z,0.58
2023-02-16T00:46:04.155Z,0.47
2023-02-16T00:47:04.259Z,1.44
2023-02-16T00:48:04.242Z,0.47
2023-02-16T00:49:04.237Z,0.00
2023-02-16T00:50:04.262Z,0.00
2023-02-16T00:51:13.907Z,0.00
2023-02-16T00:52:04.334Z,0.47
2023-02-16T00:53:04.364Z,0.58
2023-02-16T00:54:04.334Z,0.00
2023-02-16T00:55:04.391Z,0.47
2023-02-16T00:56:04.425Z,0.80
2023-02-16T00:57:04.521Z,0.80
2023-02-16T00:58:04.483Z,0.69
2023-02-16T00:59:04.487Z,1.44
2023-02-16T01:00:04.514Z,0.00
2023-02-16T01:01:04.767Z,0.47
2023-02-16T01:02:04.531Z,0.00
2023-02-16T01:03:04.539Z,0.00
2023-02-16T01:04:04.571Z,0.00
2023-02-16T01:05:04.611Z,0.69
2023-02-16T01:06:04.609Z,1.54
2023-02-16T01:07:04.664Z,1.65
2023-02-16T01:08:04.725Z,1.44
2023-02-16T01:09:04.708Z,1.75
2023-02-16T01:10:04.777Z,1.01
2023-02-16T01:11:05.183Z,0.00
2023-02-16T01:12:04.805Z,1.12
2023-02-16T01:13:04.788Z,0.69
2023-02-16T01:14:04.783Z,0.80
2023-02-16T01:15:04.823Z,0.47
2023-02-16T01:16:05.006Z,0.58
2023-02-16T01:17:04.884Z,0.00
2023-02-16T01:18:04.894Z,0.47
2023-02-16T01:19:04.960Z,0.58
2023-02-16T01:20:04.942Z,0.90
2023-02-16T01:21:05.272Z,0.47
2023-02-16T01:22:05.001Z,0.47
2023-02-16T01:23:05.026Z,0.00
2023-02-16T01:24:05.087Z,0.00
2023-02-16T01:29:23.105Z,15.37
2023-02-16T01:30:23.200Z,14.37
2023-02-16T01:31:23.271Z,13.74
2023-02-16T01:32:23.322Z,14.99
2023-02-16T01:33:23.264Z,14.52
2023-02-16T01:34:23.306Z,14.99
2023-02-16T01:35:23.337Z,13.02
2023-02-16T01:36:23.365Z,13.26
2023-02-16T01:37:23.394Z,13.50
2023-02-16T01:38:23.441Z,13.58
2023-02-16T01:39:23.476Z,12.05
2023-02-16T01:40:23.519Z,12.45
2023-02-16T01:41:23.559Z,12.94
2023-02-16T01:42:23.609Z,13.90
2023-02-16T01:43:23.640Z,13.10
2023-02-16T01:44:23.693Z,13.18
2023-02-16T01:45:23.729Z,13.10
2023-02-16T01:46:23.800Z,14.45
2023-02-16T01:47:23.780Z,13.82
2023-02-16T01:48:23.800Z,14.37
2023-02-16T01:49:23.845Z,13.82
2023-02-16T01:50:23.875Z,13.58
2023-02-16T01:51:23.912Z,13.26
2023-02-16T01:52:23.949Z,12.45
2023-02-16T01:53:23.990Z,15.30
2023-02-16T01:54:24.030Z,15.98
2023-02-16T01:55:24.071Z,13.98
2023-02-16T01:56:24.111Z,15.53
2023-02-16T01:57:24.176Z,15.76
2023-02-16T01:58:24.209Z,15.91
2023-02-16T01:59:24.236Z,15.76
2023-02-16T02:00:24.271Z,15.45
2023-02-16T02:01:24.377Z,15.07
2023-02-16T02:02:24.440Z,14.99
2023-02-16T02:03:24.333Z,15.68
2023-02-16T02:04:24.363Z,14.21
2023-02-16T02:05:24.409Z,16.13
2023-02-16T02:06:24.464Z,15.07
2023-02-16T02:07:24.493Z,14.13
2023-02-16T02:08:24.538Z,15.30
2023-02-16T02:09:24.553Z,15.60
2023-02-16T02:10:24.643Z,15.37
2023-02-16T02:11:24.673Z,15.22
2023-02-16T02:12:24.711Z,15.37
2023-02-16T02:13:24.747Z,15.37
2023-02-16T02:14:24.774Z,14.29
2023-02-16T02:15:24.806Z,13.42
2023-02-16T02:16:24.916Z,14.99
2023-02-16T02:17:24.813Z,15.37
2023-02-16T02:18:24.864Z,15.68
2023-02-16T02:20:50.824Z,15.37
2023-02-16T02:21:50.859Z,15.30
2023-02-16T02:22:50.875Z,15.45
2023-02-16T02:23:50.917Z,15.14
2023-02-16T02:24:50.945Z,15.14
2023-02-16T02:25:50.937Z,15.45
2023-02-16T02:26:50.975Z,15.53
2023-02-16T02:27:51.007Z,15.68
2023-02-16T02:28:51.035Z,15.76
2023-02-16T02:29:51.096Z,15.76
2023-02-16T02:30:51.148Z,15.22
2023-02-16T02:31:51.292Z,15.83
2023-02-16T02:32:51.216Z,14.91
2023-02-16T02:33:51.244Z,15.22
2023-02-16T02:34:51.298Z,14.68
2023-02-16T02:35:51.356Z,15.30
2023-02-16T02:36:51.387Z,15.14
2023-02-16T02:37:51.416Z,14.06
2023-02-16T02:38:51.449Z,14.52
2023-02-16T02:39:51.467Z,14.37
2023-02-16T02:40:52.042Z,15.37
2023-02-16T02:41:51.537Z,13.34
2023-02-16T02:42:51.577Z,12.78
2023-02-16T02:43:51.606Z,13.02
2023-02-16T02:44:51.627Z,14.21
2023-02-16T02:45:51.669Z,13.66
2023-02-16T02:46:51.751Z,14.21
2023-02-16T02:47:51.692Z,12.94
2023-02-16T02:48:51.728Z,14.52
2023-02-16T02:49:51.744Z,11.63
2023-02-16T02:50:51.773Z,12.78
2023-02-16T02:51:51.802Z,13.34
2023-02-16T02:52:51.850Z,12.94
2023-02-16T02:53:51.890Z,13.02
2023-02-16T02:54:51.922Z,14.76
2023-02-16T02:55:51.954Z,13.58
2023-02-16T02:56:52.014Z,15.14
2023-02-16T02:57:52.038Z,14.06
2023-02-16T02:58:52.061Z,13.50
2023-02-16T02:59:52.084Z,13.58
2023-02-16T03:00:52.165Z,12.94
2023-02-16T03:01:52.218Z,13.74
2023-02-16T03:02:52.231Z,13.50
2023-02-16T03:03:52.281Z,14.37
2023-02-16T03:04:52.292Z,13.50
2023-02-16T03:05:52.321Z,13.82
2023-02-16T03:06:52.351Z,13.10
2023-02-16T03:07:52.376Z,13.34
2023-02-16T03:08:52.427Z,14.29
2023-02-16T03:09:52.463Z,13.82
2023-02-16T03:10:52.500Z,14.29
2023-02-16T03:11:52.534Z,12.94
2023-02-16T03:12:52.567Z,13.98
2023-02-16T03:13:52.598Z,14.06
2023-02-16T03:14:52.634Z,13.42
2023-02-16T03:15:52.672Z,13.90
2023-02-16T03:16:52.694Z,13.42
2023-02-16T03:17:52.713Z,13.74
2023-02-16T03:18:52.733Z,14.52
2023-02-16T03:19:52.794Z,13.82
2023-02-16T03:20:52.814Z,14.21
2023-02-16T03:21:52.844Z,14.06
2023-02-16T03:22:52.865Z,14.37
2023-02-16T03:23:52.893Z,14.06
2023-02-16T03:24:52.932Z,13.66
2023-02-16T03:25:52.952Z,13.66
2023-02-16T03:26:52.983Z,13.58
2023-02-16T03:27:53.002Z,14.06
2023-02-16T03:28:53.032Z,13.74
2023-02-16T03:29:53.086Z,13.90
2023-02-16T03:30:53.155Z,13.66
2023-02-16T03:31:53.161Z,13.42
2023-02-16T03:32:53.100Z,14.29
2023-02-16T03:33:53.121Z,13.66
2023-02-16T03:34:53.150Z,12.94
2023-02-16T03:35:53.170Z,14.99
2023-02-16T03:36:53.202Z,16.13
2023-02-16T03:37:53.232Z,15.45
2023-02-16T03:38:53.263Z,16.51
2023-02-16T03:39:53.301Z,15.07
2023-02-16T03:40:53.336Z,13.42
2023-02-16T03:41:53.375Z,14.37
2023-02-16T03:42:53.433Z,15.07
2023-02-16T03:43:53.453Z,14.76
2023-02-16T03:44:53.486Z,14.68
2023-02-16T03:45:53.598Z,14.68
2023-02-16T03:46:53.520Z,13.66
2023-02-16T03:47:53.549Z,14.52
2023-02-16T03:48:53.581Z,13.98
2023-02-16T03:49:53.594Z,14.06
2023-02-16T03:50:53.632Z,14.76
2023-02-16T03:51:53.682Z,13.66
2023-02-16T03:52:53.705Z,13.34
2023-02-16T03:53:53.740Z,14.06
2023-02-16T03:54:53.761Z,14.37
2023-02-16T03:55:53.797Z,13.98
2023-02-16T03:56:53.826Z,14.45
2023-02-16T03:57:53.862Z,16.28
2023-02-16T03:58:53.885Z,15.68
2023-02-16T03:59:53.907Z,14.37
2023-02-16T04:00:53.956Z,14.29
2023-02-16T04:01:54.020Z,12.70
2023-02-16T04:02:54.058Z,13.34
2023-02-16T04:03:54.137Z,13.58
2023-02-16T04:04:54.080Z,13.66
2023-02-16T04:05:54.130Z,12.86
2023-02-16T04:06:54.139Z,14.29
2023-02-16T04:07:54.178Z,13.50
2023-02-16T04:08:54.200Z,12.86
2023-02-16T04:09:54.251Z,11.80
2023-02-16T04:10:54.328Z,12.21
2023-02-16T04:11:54.280Z,12.78
2023-02-16T04:12:54.318Z,11.55
2023-02-16T04:13:54.356Z,12.29
2023-02-16T04:14:54.411Z,13.82
2023-02-16T04:15:54.458Z,13.58
2023-02-16T04:16:54.571Z,13.42
2023-02-16T04:17:54.514Z,13.50
2023-02-16T04:18:54.542Z,13.26
2023-02-16T04:19:54.573Z,13.26
2023-02-16T04:20:54.598Z,13.10
2023-02-16T04:21:54.627Z,13.10
2023-02-16T04:22:54.649Z,14.45
2023-02-16T04:23:54.666Z,13.74
2023-02-16T04:24:54.714Z,13.82
2023-02-16T04:25:54.734Z,14.68
2023-02-16T04:26:54.765Z,14.60
2023-02-16T04:27:54.793Z,12.29
2023-02-16T04:28:54.831Z,12.78
2023-02-16T04:29:54.912Z,12.94
2023-02-16T04:30:55.050Z,13.90
2023-02-16T04:31:54.982Z,14.29
2023-02-16T04:32:54.917Z,13.10
2023-02-16T04:33:54.942Z,13.26
2023-02-16T04:34:54.988Z,14.52
2023-02-16T04:35:55.031Z,12.29
2023-02-16T04:36:55.074Z,12.86
2023-02-16T04:37:55.107Z,13.42
2023-02-16T04:38:55.142Z,12.70
2023-02-16T04:39:55.181Z,14.29
2023-02-16T04:40:55.231Z,14.76
2023-02-16T04:41:55.263Z,14.37
2023-02-16T04:42:55.292Z,13.90
2023-02-16T04:43:55.333Z,14.37
2023-02-16T04:44:55.370Z,13.90
2023-02-16T04:45:55.413Z,14.13
2023-02-16T04:46:55.438Z,14.84
2023-02-16T04:47:55.462Z,14.68
2023-02-16T04:48:55.524Z,14.21
2023-02-16T04:49:55.554Z,13.34
2023-02-16T04:50:55.582Z,14.45
2023-02-16T04:51:55.629Z,14.06
2023-02-16T04:52:55.682Z,14.29
2023-02-16T04:53:55.714Z,13.66
2023-02-16T04:54:55.747Z,13.10
2023-02-16T04:55:55.773Z,14.76
2023-02-16T04:56:55.815Z,12.70
2023-02-16T04:57:55.853Z,13.58
2023-02-16T04:58:55.888Z,13.58
2023-02-16T04:59:55.906Z,15.45
2023-02-16T05:00:55.934Z,15.37
2023-02-16T05:01:56.083Z,15.53
2023-02-16T05:02:55.974Z,14.21
2023-02-16T05:03:56.023Z,14.29
2023-02-16T05:04:56.063Z,14.68
2023-02-16T05:05:56.094Z,15.22
2023-02-16T05:06:56.141Z,16.21
2023-02-16T05:07:56.185Z,15.53
2023-02-16T05:08:56.230Z,15.30
2023-02-16T05:09:56.262Z,14.84
2023-02-16T05:10:56.295Z,13.66
2023-02-16T05:11:56.333Z,15.14
2023-02-16T05:12:56.395Z,15.07
2023-02-16T05:13:56.420Z,17.18
2023-02-16T05:14:56.456Z,15.68
2023-02-16T05:15:57.250Z,14.52
2023-02-16T05:16:56.505Z,14.37
2023-02-16T05:17:56.601Z,14.99
2023-02-16T05:18:58.732Z,14.60
2023-02-16T05:19:56.585Z,14.52
2023-02-16T05:20:56.626Z,15.07
2023-02-16T05:21:56.665Z,15.37
2023-02-16T05:22:56.714Z,14.84
2023-02-16T05:23:56.737Z,14.76
2023-02-16T05:24:56.780Z,14.99
2023-02-16T05:25:56.807Z,13.98
2023-02-16T05:26:56.839Z,14.21
2023-02-16T05:27:56.888Z,14.29
2023-02-16T05:28:56.867Z,13.82
2023-02-16T05:29:56.933Z,13.50
2023-02-16T05:30:57.021Z,15.53
2023-02-16T05:31:57.082Z,14.60
2023-02-16T05:32:57.008Z,14.37
2023-02-16T05:33:57.037Z,14.37
2023-02-16T05:34:57.115Z,14.60
2023-02-16T05:35:57.067Z,14.91
2023-02-16T05:36:57.121Z,14.06
2023-02-16T05:37:57.150Z,14.76
2023-02-16T05:38:57.177Z,14.52
2023-02-16T05:39:57.204Z,13.50
2023-02-16T05:40:57.249Z,14.84
2023-02-16T05:41:57.305Z,15.07
2023-02-16T05:42:57.347Z,15.07
2023-02-16T05:43:57.382Z,13.50
2023-02-16T05:44:57.425Z,15.14
2023-02-16T05:45:57.479Z,14.06
2023-02-16T05:46:57.515Z,15.07
2023-02-16T05:47:57.548Z,14.37
2023-02-16T05:48:57.579Z,14.99
2023-02-16T05:49:57.637Z,13.42
2023-02-16T05:50:57.685Z,15.22
2023-02-16T05:51:57.733Z,15.22
2023-02-16T05:52:57.773Z,14.45
2023-02-16T05:53:57.809Z,14.37
2023-02-16T05:54:57.867Z,14.13
2023-02-16T05:55:57.912Z,14.37
2023-02-16T05:56:57.961Z,13.58
2023-02-16T05:57:58.030Z,14.76
2023-02-16T05:58:58.069Z,15.14
2023-02-16T05:59:58.108Z,15.68
2023-02-16T06:00:58.152Z,14.29
2023-02-16T06:01:58.200Z,14.76
2023-02-16T06:02:58.276Z,14.21
2023-02-16T06:03:58.352Z,14.37
2023-02-16T06:04:58.290Z,14.76
2023-02-16T06:05:58.331Z,14.91
2023-02-16T06:06:58.390Z,15.68
2023-02-16T06:07:58.421Z,14.52
2023-02-16T06:08:58.473Z,14.37
2023-02-16T06:09:58.512Z,15.22
2023-02-16T06:10:58.560Z,14.21
2023-02-16T06:11:58.569Z,14.45
2023-02-16T06:12:58.583Z,14.99
2023-02-16T06:13:58.632Z,15.07
2023-02-16T06:14:58.642Z,14.45
2023-02-16T06:15:58.747Z,14.99
2023-02-16T06:16:58.731Z,13.26
2023-02-16T06:17:58.785Z,14.06
2023-02-16T06:18:58.836Z,14.91
2023-02-16T06:19:58.883Z,14.52
2023-02-16T06:20:58.945Z,14.76
2023-02-16T06:21:59.013Z,13.66
2023-02-16T06:22:59.068Z,15.07
2023-02-16T06:23:59.134Z,13.98
2023-02-16T06:24:59.216Z,13.90
2023-02-16T06:25:59.284Z,14.60
2023-02-16T06:26:59.244Z,0.00
2023-02-16T06:27:59.279Z,0.00
2023-02-16T06:28:59.307Z,0.00
2023-02-16T06:29:59.350Z,0.00
2023-02-16T06:30:59.316Z,0.00
2023-02-16T06:31:59.467Z,0.00
2023-02-16T06:32:59.364Z,0.00
2023-02-16T06:33:59.395Z,0.00
2023-02-16T06:34:59.424Z,0.00
2023-02-16T06:35:59.454Z,0.00
2023-02-16T06:36:59.487Z,0.00
2023-02-16T06:37:59.576Z,0.00
2023-02-16T06:38:59.563Z,0.00
2023-02-16T06:39:59.615Z,0.00
2023-02-16T06:40:59.652Z,0.00
2023-02-16T06:41:59.673Z,0.00
2023-02-16T06:42:59.783Z,0.00
2023-02-16T06:43:59.810Z,0.00
2023-02-16T06:44:59.803Z,0.00
2023-02-16T06:45:59.817Z,0.00
2023-02-16T06:46:59.845Z,0.00
2023-02-16T06:47:59.863Z,0.00
2023-02-16T06:48:59.937Z,0.00
2023-02-16T06:49:59.990Z,0.00
2023-02-16T06:51:00.006Z,0.00
2023-02-16T06:52:00.036Z,0.00
2023-02-16T06:53:00.039Z,0.00
2023-02-16T06:54:00.039Z,0.00
2023-02-16T06:55:00.060Z,0.00
2023-02-16T06:56:00.061Z,0.00
2023-02-16T06:57:00.064Z,0.00
2023-02-16T06:58:00.128Z,0.00
2023-02-16T06:59:00.140Z,0.00
2023-02-16T07:00:00.171Z,0.00
2023-02-16T07:01:00.263Z,0.00
2023-02-16T07:02:00.158Z,0.00
2023-02-16T07:03:00.181Z,0.00
2023-02-16T07:04:00.180Z,0.00
2023-02-16T07:05:00.202Z,0.00
2023-02-16T07:06:00.227Z,0.00
2023-02-16T07:07:00.236Z,0.00
2023-02-16T07:08:00.186Z,0.00
2023-02-16T07:09:00.260Z,0.00
2023-02-16T07:10:00.307Z,0.00
2023-02-16T07:19:36.280Z,0.00
2023-02-16T07:22:02.279Z,0.00
2023-02-16T07:23:02.309Z,0.00
2023-02-16T07:24:02.329Z,0.00
2023-02-16T07:25:02.378Z,0.00
2023-02-16T07:26:02.382Z,0.00
2023-02-16T07:27:02.429Z,0.00
2023-02-16T07:28:02.413Z,0.00
2023-02-16T07:29:02.460Z,0.00
2023-02-16T07:30:02.540Z,0.00
2023-02-16T07:31:02.768Z,0.00
2023-02-16T07:32:02.584Z,14.76
2023-02-16T07:33:02.541Z,14.13
2023-02-16T07:34:02.531Z,14.91
2023-02-16T07:35:02.592Z,14.68
2023-02-16T07:36:02.660Z,14.68
2023-02-16T07:37:02.711Z,14.13
2023-02-16T07:38:02.783Z,13.74
2023-02-16T07:39:02.820Z,14.13
2023-02-16T07:40:02.891Z,13.82
2023-02-16T07:41:03.238Z,14.13
2023-02-16T07:42:02.992Z,13.74
2023-02-16T07:43:03.065Z,14.29
2023-02-16T07:44:03.130Z,14.60
2023-02-16T07:45:03.184Z,14.21
2023-02-16T07:46:03.348Z,14.45
2023-02-16T07:47:03.255Z,13.34
2023-02-16T07:48:03.265Z,0.00
2023-02-16T07:49:03.292Z,0.00
2023-02-16T07:50:03.312Z,0.00
2023-02-16T07:51:03.785Z,1.75
2023-02-16T07:52:03.310Z,3.30
2023-02-16T07:53:03.346Z,5.28
2023-02-16T07:54:03.372Z,8.98
2023-02-16T07:55:03.448Z,14.45
2023-02-16T07:56:03.489Z,13.74
2023-02-16T07:57:03.503Z,9.51
2023-02-16T07:58:03.534Z,8.89
2023-02-16T07:59:03.554Z,6.33
2023-02-16T08:00:03.568Z,6.71
2023-02-16T08:01:04.668Z,6.52
2023-02-16T08:02:03.712Z,8.45
2023-02-16T08:03:03.762Z,4.40
2023-02-16T08:04:03.718Z,3.30
2023-02-16T08:05:03.795Z,5.19
2023-02-16T08:06:03.821Z,4.89
2023-02-16T08:07:03.837Z,6.05
2023-02-16T08:08:03.846Z,5.57
2023-02-16T08:09:03.861Z,4.89
2023-02-16T08:10:03.891Z,4.99
2023-02-16T08:11:04.208Z,4.99
2023-02-16T08:12:04.027Z,4.50
2023-02-16T08:13:04.006Z,5.76
2023-02-16T08:14:04.064Z,4.11
2023-02-16T08:15:04.088Z,4.40
2023-02-16T08:16:04.365Z,5.28
2023-02-16T08:17:04.237Z,7.54
2023-02-16T08:18:04.149Z,0.00
2023-02-16T08:19:04.195Z,0.00
2023-02-16T08:20:04.198Z,1.86
2023-02-16T08:21:04.812Z,0.80
2023-02-16T08:22:04.236Z,0.00
2023-02-16T08:23:04.279Z,0.00
2023-02-16T08:24:04.317Z,0.00
2023-02-16T08:25:05.932Z,0.00
2023-02-16T08:26:04.713Z,0.00
2023-02-16T08:27:04.406Z,0.00
2023-02-16T08:28:04.418Z,0.00
2023-02-16T08:29:04.433Z,0.00
2023-02-16T08:30:04.585Z,15.60
2023-02-16T08:31:04.613Z,13.90
2023-02-16T08:32:04.629Z,11.38
2023-02-16T08:33:04.548Z,12.94
2023-02-16T08:34:04.631Z,10.54
2023-02-16T08:35:04.651Z,7.90
2023-02-16T08:36:05.005Z,8.27
2023-02-16T08:37:04.747Z,7.17
2023-02-16T08:38:04.783Z,5.48
2023-02-16T08:39:04.812Z,4.70
2023-02-16T08:40:04.861Z,2.28
2023-02-16T08:41:04.904Z,1.12
2023-02-16T08:42:04.923Z,1.12
2023-02-16T08:43:04.914Z,0.90
2023-02-16T08:44:04.984Z,1.22
2023-02-16T08:45:05.002Z,2.07
2023-02-16T08:46:05.412Z,2.59
2023-02-16T08:47:05.066Z,3.30
2023-02-16T08:48:05.076Z,3.30
2023-02-16T08:49:05.073Z,2.38
2023-02-16T08:50:05.096Z,3.10
2023-02-16T08:51:05.087Z,2.48
2023-02-16T08:52:05.115Z,3.20
2023-02-16T08:53:05.123Z,2.38
2023-02-16T08:54:06.048Z,3.20
2023-02-16T08:55:05.141Z,3.51
2023-02-16T08:56:05.551Z,3.51
2023-02-16T08:57:05.247Z,3.30
2023-02-16T08:58:05.241Z,3.10
2023-02-16T08:59:05.266Z,3.10
2023-02-16T09:00:05.316Z,3.10
2023-02-16T09:01:05.437Z,3.51
2023-02-16T09:02:05.470Z,2.69
2023-02-16T09:03:05.451Z,2.59
2023-02-16T09:04:05.459Z,2.48
2023-02-16T09:05:05.513Z,2.79
2023-02-16T09:06:05.907Z,3.20
2023-02-16T09:07:05.597Z,2.38
2023-02-16T09:08:05.512Z,2.59
2023-02-16T09:09:05.564Z,2.69
2023-02-16T09:10:05.601Z,2.69
2023-02-16T09:11:05.901Z,3.00
2023-02-16T09:12:05.705Z,3.51
2023-02-16T09:13:05.632Z,4.50
2023-02-16T09:14:05.634Z,2.59
2023-02-16T09:15:05.615Z,3.00
2023-02-16T09:16:06.047Z,3.00
2023-02-16T09:17:05.749Z,3.00
2023-02-16T09:18:05.825Z,3.51
2023-02-16T09:19:05.817Z,2.90
2023-02-16T09:20:05.843Z,2.07
2023-02-16T09:21:05.835Z,1.86
2023-02-16T09:22:05.904Z,1.75
2023-02-16T09:23:05.886Z,2.17
2023-02-16T09:24:05.937Z,2.17
2023-02-16T09:25:05.960Z,2.17
2023-02-16T09:26:06.175Z,2.79
2023-02-16T09:27:06.027Z,2.48
2023-02-16T09:28:06.008Z,2.69
2023-02-16T09:29:06.100Z,2.48
2023-02-16T09:30:06.180Z,2.69
2023-02-16T09:31:06.160Z,2.48
2023-02-16T09:32:06.126Z,3.00
2023-02-16T09:33:06.115Z,2.90
2023-02-16T09:34:06.187Z,0.00
2023-02-16T09:35:06.257Z,1.12
2023-02-16T09:36:06.588Z,0.00
2023-02-16T09:37:06.281Z,0.00
2023-02-16T09:38:06.292Z,0.00
2023-02-16T09:39:06.323Z,0.00
2023-02-16T09:40:06.323Z,0.00
2023-02-16T09:41:06.345Z,0.00
2023-02-16T09:42:06.378Z,0.00
2023-02-16T09:43:06.426Z,0.00
2023-02-16T09:44:06.406Z,0.00
2023-02-16T09:45:06.402Z,0.00
2023-02-16T09:46:06.775Z,0.00
2023-02-16T09:47:06.462Z,0.00
2023-02-16T09:49:32.452Z,0.00
2023-02-16T09:50:52.600Z,0.00
2023-02-16T09:51:34.737Z,0.00
2023-02-16T09:52:32.498Z,0.00
2023-02-16T09:53:32.520Z,0.00
2023-02-16T09:54:32.615Z,0.00
2023-02-16T09:55:32.589Z,0.00
2023-02-16T09:56:32.611Z,0.00
2023-02-16T09:57:32.653Z,0.00
2023-02-16T09:58:32.679Z,0.00
2023-02-16T09:59:32.651Z,0.00
2023-02-16T10:00:32.715Z,0.00
2023-02-16T10:01:32.733Z,0.00
2023-02-16T10:02:32.753Z,0.00
2023-02-16T10:03:32.716Z,0.00
2023-02-16T10:04:32.712Z,2.07
2023-02-16T10:05:32.741Z,0.00
2023-02-16T10:06:32.744Z,0.00
2023-02-16T10:07:32.731Z,0.00
2023-02-16T10:08:32.716Z,0.00
2023-02-16T10:09:32.734Z,0.90
2023-02-16T10:10:32.733Z,0.90
2023-02-16T10:11:32.981Z,0.00
2023-02-16T10:12:32.825Z,0.00
2023-02-16T10:13:32.914Z,0.00
2023-02-16T10:14:32.826Z,0.00
2023-02-16T10:15:34.659Z,0.00
2023-02-16T10:16:33.065Z,0.00
2023-02-16T10:17:32.926Z,0.00
2023-02-16T10:18:32.944Z,0.00
2023-02-16T10:19:32.946Z,0.00
2023-02-16T10:20:32.963Z,0.00
2023-02-16T10:21:32.967Z,0.00
2023-02-16T10:22:33.007Z,0.00
2023-02-16T10:23:33.027Z,0.00
2023-02-16T10:24:33.091Z,0.00
2023-02-16T10:25:33.758Z,0.00
2023-02-16T10:26:33.160Z,1.44
2023-02-16T10:27:33.225Z,0.00
2023-02-16T10:28:33.270Z,0.00
2023-02-16T10:29:33.326Z,0.00
2023-02-16T10:30:33.329Z,0.00
2023-02-16T10:31:33.406Z,0.00
2023-02-16T10:32:35.506Z,0.00
2023-02-16T10:33:33.450Z,0.00
2023-02-16T10:34:33.467Z,0.00
2023-02-16T10:35:33.514Z,0.00
2023-02-16T10:36:33.545Z,0.00
2023-02-16T10:37:33.608Z,0.00
2023-02-16T10:38:33.626Z,0.00
2023-02-16T10:39:33.644Z,0.00
2023-02-16T10:40:33.625Z,0.00
2023-02-16T10:41:33.617Z,0.00
2023-02-16T10:42:33.668Z,0.00
2023-02-16T10:43:33.669Z,0.00
2023-02-16T10:44:33.695Z,0.00
2023-02-16T10:45:33.698Z,0.58
2023-02-16T10:46:33.776Z,0.00
2023-02-16T10:47:33.749Z,0.00
2023-02-16T10:48:33.758Z,0.00
2023-02-16T10:49:33.763Z,0.00
2023-02-16T10:50:33.810Z,0.00
2023-02-16T10:51:33.852Z,0.00
2023-02-16T10:52:33.829Z,0.00
2023-02-16T10:53:33.963Z,0.00
2023-02-16T10:54:33.956Z,0.00
2023-02-16T10:55:33.952Z,0.00
2023-02-16T10:56:33.960Z,0.00
2023-02-16T10:57:34.000Z,0.00
2023-02-16T10:58:34.056Z,0.00
2023-02-16T10:59:34.055Z,0.00
2023-02-16T11:00:34.058Z,0.00
2023-02-16T11:01:34.188Z,0.00
2023-02-16T11:02:34.174Z,0.00
2023-02-16T11:03:34.255Z,0.00
2023-02-16T11:04:34.348Z,0.00
2023-02-16T11:05:34.337Z,0.00
2023-02-16T11:06:36.430Z,0.00
2023-02-16T11:07:34.417Z,0.00
2023-02-16T11:08:34.420Z,0.00
2023-02-16T11:09:34.478Z,0.00
2023-02-16T11:10:34.510Z,0.00
2023-02-16T11:11:34.570Z,0.00
2023-02-16T11:12:34.596Z,0.80
2023-02-16T11:13:34.616Z,0.00
2023-02-16T11:14:34.651Z,0.00
2023-02-16T11:15:35.504Z,0.00
2023-02-16T11:16:34.682Z,0.00
2023-02-16T11:17:34.755Z,0.00
2023-02-16T11:18:34.754Z,0.00
2023-02-16T11:19:34.769Z,0.00
2023-02-16T11:20:34.821Z,0.00
2023-02-16T11:21:34.823Z,0.00
2023-02-16T11:22:34.890Z,0.00
2023-02-16T11:23:34.883Z,0.00
2023-02-16T11:24:34.874Z,0.00
2023-02-16T11:25:34.869Z,0.00
2023-02-16T11:26:34.873Z,0.00
2023-02-16T11:27:34.945Z,0.00
2023-02-16T11:28:34.974Z,0.00
2023-02-16T11:29:35.040Z,0.00
2023-02-16T11:30:35.086Z,0.00
2023-02-16T11:31:35.174Z,0.00
2023-02-16T11:32:35.071Z,0.00
2023-02-16T11:33:35.039Z,0.00
2023-02-16T11:34:35.030Z,0.00
2023-02-16T11:35:35.114Z,0.00
2023-02-16T11:36:35.091Z,0.00
2023-02-16T11:37:35.103Z,0.00
2023-02-16T11:38:35.202Z,0.00
2023-02-16T11:39:35.184Z,0.00
2023-02-16T11:40:35.177Z,0.00
2023-02-16T11:41:35.174Z,0.00
2023-02-16T11:42:35.257Z,0.00
2023-02-16T11:43:35.248Z,0.00
2023-02-16T11:44:35.256Z,0.00
2023-02-16T11:45:35.335Z,0.00
2023-02-16T11:46:35.417Z,0.00
2023-02-16T11:47:35.373Z,0.00
2023-02-16T11:48:35.412Z,0.00
2023-02-16T11:49:35.479Z,0.00
2023-02-16T11:50:35.468Z,0.00
2023-02-16T11:51:35.505Z,0.00
2023-02-16T11:52:35.494Z,0.00
2023-02-16T11:53:35.532Z,0.00
2023-02-16T11:54:35.615Z,0.00
2023-02-16T11:55:35.643Z,0.00
2023-02-16T11:56:35.725Z,0.00
2023-02-16T11:57:35.714Z,0.00
2023-02-16T11:58:35.684Z,0.00
2023-02-16T11:59:35.685Z,0.00
2023-02-16T12:00:35.755Z,0.00
2023-02-16T12:01:35.826Z,0.00
2023-02-16T12:02:35.910Z,0.00
2023-02-16T12:03:35.937Z,0.00
2023-02-16T12:04:35.927Z,0.00
2023-02-16T12:05:35.955Z,0.00
2023-02-16T12:06:35.939Z,0.00
2023-02-16T12:07:35.997Z,0.00
2023-02-16T12:08:36.016Z,0.00
2023-02-16T12:09:35.999Z,0.00
2023-02-16T12:10:36.002Z,0.00
2023-02-16T12:11:35.976Z,0.00
2023-02-16T12:12:36.036Z,0.00
2023-02-16T12:13:36.044Z,0.00
2023-02-16T12:14:36.734Z,0.00
2023-02-16T12:15:36.037Z,0.00
2023-02-16T12:16:36.391Z,0.00
2023-02-16T12:17:36.121Z,0.00
2023-02-16T12:18:36.186Z,0.00
2023-02-16T12:19:36.155Z,0.00
2023-02-16T12:20:36.201Z,0.00
2023-02-16T12:21:36.265Z,0.00
2023-02-16T12:22:36.314Z,0.00
2023-02-16T12:23:36.338Z,0.00
2023-02-16T12:24:36.352Z,0.00
2023-02-16T12:25:36.403Z,0.00
2023-02-16T12:26:37.117Z,0.00
2023-02-16T12:27:36.474Z,0.00
2023-02-16T12:28:36.478Z,0.00
2023-02-16T12:29:36.483Z,0.00
2023-02-16T12:30:36.464Z,0.00
2023-02-16T12:31:36.519Z,0.00
2023-02-16T12:32:36.526Z,0.00
2023-02-16T12:33:36.532Z,0.00
2023-02-16T12:34:36.541Z,0.00
2023-02-16T12:35:36.636Z,0.00
2023-02-16T12:36:37.309Z,0.00
2023-02-16T12:37:36.728Z,0.00
2023-02-16T12:38:37.323Z,0.00
2023-02-16T12:39:36.713Z,0.00
2023-02-16T12:40:36.613Z,0.00
2023-02-16T12:41:36.683Z,0.00
2023-02-16T12:42:36.665Z,0.00
2023-02-16T12:43:36.680Z,0.00
2023-02-16T12:44:36.912Z,0.00
2023-02-16T12:45:36.814Z,0.00
2023-02-16T12:46:37.457Z,0.00
2023-02-16T12:47:36.866Z,0.00
2023-02-16T12:48:36.894Z,0.00
2023-02-16T12:49:36.967Z,0.00
2023-02-16T12:50:37.005Z,0.00
2023-02-16T12:51:37.094Z,0.00
2023-02-16T12:52:37.315Z,0.00
2023-02-16T12:53:37.310Z,0.00
2023-02-16T12:54:37.247Z,0.00
2023-02-16T12:55:37.449Z,0.00
2023-02-16T12:56:38.257Z,0.00
2023-02-16T12:57:37.496Z,0.00
2023-02-16T12:58:37.599Z,0.00
2023-02-16T12:59:37.521Z,0.00
2023-02-16T13:00:37.495Z,0.00
2023-02-16T13:01:37.464Z,0.00
2023-02-16T13:02:37.590Z,0.00
2023-02-16T13:03:37.869Z,0.00
2023-02-16T13:04:37.553Z,0.00
2023-02-16T13:05:37.603Z,0.00
2023-02-16T13:06:37.622Z,0.00
2023-02-16T13:07:37.707Z,0.00
2023-02-16T13:08:37.724Z,0.00
2023-02-16T13:09:37.728Z,0.00
2023-02-16T13:10:37.819Z,0.00
2023-02-16T13:11:37.864Z,0.00
2023-02-16T13:12:37.812Z,0.00
2023-02-16T13:13:37.813Z,0.00
2023-02-16T13:14:37.819Z,0.00
2023-02-16T13:15:37.822Z,0.00
2023-02-16T13:16:37.865Z,0.00
2023-02-16T13:17:37.845Z,0.00
2023-02-16T13:18:37.829Z,0.00
2023-02-16T13:19:37.883Z,0.00
2023-02-16T13:20:37.952Z,0.80
2023-02-16T13:21:50.379Z,0.00
2023-02-16T13:22:38.034Z,0.00
2023-02-16T13:23:38.114Z,0.00
2023-02-16T13:24:38.088Z,0.00